createdAt,value
2022-10-02T00:00:16.469Z,84.379167
2022-10-02T00:05:16.553Z,84.387500
2022-10-02T00:10:16.534Z,84.279167
2022-10-02T00:15:16.534Z,84.620833
2022-10-02T00:20:16.486Z,84.716667
2022-10-02T00:25:16.621Z,84.366667
2022-10-02T00:30:16.523Z,84.420833
2022-10-02T00:35:16.541Z,84.412500
2022-10-02T00:40:16.468Z,84.691667
2022-10-02T00:45:17.097Z,84.595833
2022-10-02T00:50:16.746Z,84.600000
2022-10-02T00:55:16.546Z,84.604167
2022-10-02T01:00:16.504Z,84.533333
2022-10-02T01:05:16.440Z,84.254167
2022-10-02T01:10:16.451Z,84.391667
2022-10-02T01:15:16.436Z,84.525000
2022-10-02T01:20:16.647Z,84.670833
2022-10-02T01:25:16.411Z,84.595833
2022-10-02T01:30:16.568Z,84.625000
2022-10-02T01:35:16.677Z,84.600000
2022-10-02T01:40:16.565Z,84.875000
2022-10-02T01:45:16.445Z,84.925000
2022-10-02T01:50:16.554Z,84.925000
2022-10-02T01:55:16.587Z,84.675000
2022-10-02T02:00:16.558Z,84.250000
2022-10-02T02:05:16.460Z,83.866667
2022-10-02T02:10:16.473Z,83.854167
2022-10-02T02:15:16.883Z,83.900000
2022-10-02T02:20:16.542Z,83.941667
2022-10-02T02:25:16.450Z,83.841667
2022-10-02T02:30:16.519Z,83.591667
2022-10-02T02:35:16.532Z,83.429167
2022-10-02T02:40:16.446Z,83.383333
2022-10-02T02:45:16.488Z,83.287500
2022-10-02T02:50:16.816Z,83.200000
2022-10-02T02:55:16.757Z,83.129167
2022-10-02T03:00:16.469Z,83.275000
2022-10-02T03:05:16.544Z,83.275000
2022-10-02T03:10:16.746Z,83.012000
2022-10-02T03:15:16.836Z,82.466667
2022-10-02T03:20:20.288Z,82.420833
2022-10-02T03:25:16.681Z,82.366667
2022-10-02T03:30:16.595Z,82.366667
2022-10-02T03:35:16.931Z,82.658333
2022-10-02T03:40:16.712Z,82.812500
2022-10-02T03:45:33.018Z,82.879167
2022-10-02T03:50:16.806Z,82.733333
2022-10-02T03:55:16.572Z,82.608333
2022-10-02T04:00:16.618Z,82.929167
2022-10-02T04:05:16.555Z,83.200000
2022-10-02T04:10:16.654Z,83.250000
2022-10-02T04:15:16.570Z,83.400000
2022-10-02T04:20:16.690Z,83.445833
2022-10-02T04:25:16.590Z,83.433333
2022-10-02T04:30:16.772Z,83.558333
2022-10-02T04:35:16.785Z,83.541667
2022-10-02T04:40:16.870Z,83.683333
2022-10-02T04:45:16.942Z,83.770833
2022-10-02T04:50:16.741Z,83.808333
2022-10-02T04:55:16.575Z,83.687500
2022-10-02T05:00:16.542Z,83.333333
2022-10-02T05:05:16.769Z,83.079167
2022-10-02T05:10:16.596Z,83.000000
2022-10-02T05:15:16.548Z,82.950000
2022-10-02T05:20:16.563Z,82.883333
2022-10-02T05:25:16.719Z,83.008333
2022-10-02T05:30:16.551Z,83.283333
2022-10-02T05:35:16.551Z,83.416667
2022-10-02T05:40:16.505Z,83.545833
2022-10-02T05:45:16.949Z,83.483333
2022-10-02T05:50:16.961Z,83.550000
2022-10-02T05:55:16.514Z,83.658333
2022-10-02T06:00:16.719Z,83.270833
2022-10-02T06:05:16.581Z,83.183333
2022-10-02T06:10:16.817Z,83.004167
2022-10-02T06:15:16.633Z,82.508333
2022-10-02T06:20:16.568Z,82.129167
2022-10-02T06:25:16.770Z,81.975000
2022-10-02T06:30:16.597Z,81.537500
2022-10-02T06:35:16.477Z,80.958333
2022-10-02T06:40:16.557Z,80.633333
2022-10-02T06:45:16.803Z,80.516667
2022-10-02T06:50:16.906Z,80.179167
2022-10-02T06:55:16.626Z,80.166667
2022-10-02T07:00:16.476Z,79.964000
2022-10-02T07:05:16.444Z,79.483333
2022-10-02T07:10:16.563Z,78.891667
2022-10-02T07:15:16.626Z,78.983333
2022-10-02T07:20:16.593Z,78.783333
2022-10-02T07:25:16.488Z,78.308333
2022-10-02T07:30:16.855Z,79.083333
2022-10-02T07:35:16.530Z,78.775000
2022-10-02T07:40:16.500Z,77.879167
2022-10-02T07:45:16.521Z,77.912500
2022-10-02T07:50:16.561Z,77.620000
2022-10-02T07:55:16.636Z,76.691667
2022-10-02T08:00:16.496Z,77.012500
2022-10-02T08:05:16.497Z,76.950000
2022-10-02T08:10:16.579Z,76.400000
2022-10-02T08:15:16.712Z,75.462500
2022-10-02T08:20:16.943Z,74.741667
2022-10-02T08:25:16.604Z,74.783333
2022-10-02T08:30:17.138Z,73.883333
2022-10-02T08:35:17.086Z,74.805000
2022-10-02T08:40:16.454Z,74.075000
2022-10-02T08:45:16.521Z,74.037500
2022-10-02T08:50:16.763Z,73.758333
2022-10-02T08:55:16.560Z,73.350000
2022-10-02T09:00:16.561Z,72.845833
2022-10-02T09:05:16.511Z,75.645833
2022-10-02T09:10:16.593Z,79.279167
2022-10-02T09:15:16.869Z,81.175000
2022-10-02T09:20:16.745Z,83.520833
2022-10-02T09:25:16.508Z,83.108333
2022-10-02T09:30:16.457Z,81.000000
2022-10-02T09:35:16.714Z,79.208333
2022-10-02T09:40:16.500Z,76.462500
2022-10-02T09:45:16.416Z,76.383333
2022-10-02T09:50:16.574Z,76.775000
2022-10-02T09:55:16.574Z,75.516667
2022-10-02T10:00:16.470Z,76.820833
2022-10-02T10:05:16.524Z,75.916667
2022-10-02T10:10:16.963Z,75.941667
2022-10-02T10:15:16.575Z,75.695833
2022-10-02T10:20:16.997Z,73.691667
2022-10-02T10:25:16.482Z,74.037500
2022-10-02T10:30:16.641Z,75.545833
2022-10-02T10:35:16.881Z,77.137500
2022-10-02T10:40:16.672Z,78.316667
2022-10-02T10:45:16.998Z,77.387500
2022-10-02T10:50:16.474Z,77.970833
2022-10-02T10:55:16.515Z,77.116667
2022-10-02T11:00:16.479Z,75.941667
2022-10-02T11:05:16.589Z,74.825000
2022-10-02T11:10:16.481Z,76.525000
2022-10-02T11:15:16.571Z,77.950000
2022-10-02T11:20:16.481Z,78.400000
2022-10-02T11:25:16.410Z,77.491667
2022-10-02T11:30:16.833Z,76.883333
2022-10-02T11:35:16.543Z,76.712500
2022-10-02T11:40:16.441Z,75.950000
2022-10-02T11:45:16.415Z,75.775000
2022-10-02T11:50:16.445Z,75.066667
2022-10-02T11:55:16.699Z,74.387500
2022-10-02T12:00:16.876Z,75.454167
2022-10-02T12:05:16.895Z,75.233333
2022-10-02T12:10:16.812Z,75.320833
2022-10-02T12:15:16.824Z,75.687500
2022-10-02T12:20:17.118Z,75.250000
2022-10-02T12:25:16.607Z,75.908333
2022-10-02T12:30:16.449Z,74.170833
2022-10-02T12:35:16.401Z,74.629167
2022-10-02T12:40:16.453Z,75.800000
2022-10-02T12:45:16.934Z,75.458333
2022-10-02T12:50:16.550Z,76.192000
2022-10-02T12:55:16.461Z,77.233333
2022-10-02T13:00:16.499Z,77.445833
2022-10-02T13:05:16.425Z,77.587500
2022-10-02T13:10:16.606Z,77.570833
2022-10-02T13:15:16.393Z,77.729167
2022-10-02T13:20:16.405Z,76.312500
2022-10-02T13:25:16.442Z,75.145833
2022-10-02T13:30:16.536Z,75.733333
2022-10-02T13:35:16.377Z,75.620833
2022-10-02T13:40:16.454Z,75.104167
2022-10-02T13:45:16.605Z,74.945833
2022-10-02T13:50:17.764Z,73.762500
2022-10-02T13:55:16.440Z,74.000000
2022-10-02T14:00:16.382Z,73.095833
2022-10-02T14:05:16.448Z,74.233333
2022-10-02T14:10:16.798Z,74.237500
2022-10-02T14:15:16.381Z,75.370833
2022-10-02T14:20:16.494Z,75.762500
2022-10-02T14:25:16.388Z,75.558333
2022-10-02T14:30:16.816Z,75.325000
2022-10-02T14:35:16.340Z,75.320833
2022-10-02T14:40:16.538Z,74.616667
2022-10-02T14:45:16.757Z,73.550000
2022-10-02T14:50:16.869Z,73.612500
2022-10-02T14:55:16.500Z,74.458333
2022-10-02T15:00:16.358Z,75.141667
2022-10-02T15:05:16.400Z,75.366667
2022-10-02T15:10:17.127Z,75.275000
2022-10-02T15:15:16.398Z,76.166667
2022-10-02T15:20:16.363Z,76.620833
2022-10-02T15:25:18.070Z,76.429167
2022-10-02T15:30:16.437Z,76.752000
2022-10-02T15:35:16.499Z,77.270833
2022-10-02T15:40:16.553Z,77.896000
2022-10-02T15:45:16.391Z,78.400000
2022-10-02T15:50:16.371Z,78.862500
2022-10-02T15:55:19.573Z,79.533333
2022-10-02T16:00:16.681Z,80.445833
2022-10-02T16:05:16.387Z,81.266667
2022-10-02T16:10:16.401Z,81.683333
2022-10-02T16:15:16.342Z,82.058333
2022-10-02T16:20:16.365Z,82.480000
2022-10-02T16:25:16.341Z,82.729167
2022-10-02T16:30:16.430Z,84.008333
2022-10-02T16:35:16.356Z,85.320000
2022-10-02T16:40:16.485Z,86.258333
2022-10-02T16:45:16.463Z,86.933333
2022-10-02T16:50:16.364Z,87.433333
2022-10-02T16:55:16.475Z,87.816667
2022-10-02T17:00:16.761Z,87.895833
2022-10-02T17:05:16.732Z,88.033333
2022-10-02T17:10:18.968Z,88.050000
2022-10-02T17:15:16.636Z,88.241667
2022-10-02T17:20:16.387Z,88.166667
2022-10-02T17:25:16.337Z,87.829167
2022-10-02T17:30:16.447Z,87.616667
2022-10-02T17:35:16.329Z,87.475000
2022-10-02T17:40:16.349Z,86.852381
2022-10-02T17:45:16.296Z,86.629167
2022-10-02T17:50:16.390Z,86.754167
2022-10-02T17:55:16.426Z,86.832000
2022-10-02T18:00:16.454Z,86.833333
2022-10-02T18:05:16.383Z,87.416667
2022-10-02T18:10:16.855Z,87.200000
2022-10-02T18:15:16.522Z,86.841667
2022-10-02T18:20:16.423Z,86.741667
2022-10-02T18:25:16.311Z,87.087500
2022-10-02T18:30:16.719Z,87.695833
2022-10-02T18:35:16.300Z,87.868000
2022-10-02T18:40:16.439Z,87.629167
2022-10-02T18:45:16.782Z,87.832000
2022-10-02T18:50:16.828Z,87.879167
2022-10-02T18:55:16.331Z,88.125000
2022-10-02T19:00:16.391Z,87.883333
2022-10-02T19:05:16.429Z,87.975000
2022-10-02T19:10:16.651Z,87.656000
2022-10-02T19:15:16.287Z,87.479167
2022-10-02T19:20:16.299Z,87.320833
2022-10-02T19:25:16.346Z,87.262500
2022-10-02T19:30:16.316Z,87.450000
2022-10-02T19:35:16.297Z,87.550000
2022-10-02T19:40:16.463Z,87.704167
2022-10-02T19:45:16.304Z,87.366667
2022-10-02T19:50:16.416Z,87.037500
2022-10-02T19:55:16.366Z,86.691667
2022-10-02T20:00:16.353Z,86.308333
2022-10-02T20:05:16.353Z,85.908333
2022-10-02T20:10:16.357Z,85.920833
2022-10-02T20:15:17.013Z,85.787500
2022-10-02T20:20:16.297Z,85.433333
2022-10-02T20:25:16.393Z,85.229167
2022-10-02T20:30:16.335Z,84.712500
2022-10-02T20:35:16.490Z,84.770833
2022-10-02T20:40:16.348Z,84.750000
2022-10-02T20:45:16.660Z,84.470833
2022-10-02T20:50:16.640Z,84.437500
2022-10-02T20:55:16.524Z,84.644000
2022-10-02T21:00:16.395Z,85.166667
2022-10-02T21:05:16.278Z,85.495833
2022-10-02T21:10:16.263Z,85.875000
2022-10-02T21:15:16.352Z,85.629167
2022-10-02T21:20:22.784Z,85.844000
2022-10-02T21:25:16.219Z,85.679167
2022-10-02T21:30:16.283Z,85.916667
2022-10-02T21:35:16.202Z,85.804167
2022-10-02T21:40:16.190Z,85.791667
2022-10-02T21:45:16.263Z,85.883333
2022-10-02T21:50:16.471Z,85.875000
2022-10-02T21:55:16.262Z,85.404167
2022-10-02T22:00:16.406Z,85.116667
2022-10-02T22:05:16.264Z,84.883333
2022-10-02T22:10:16.279Z,84.991667
2022-10-02T22:15:16.351Z,85.320833
2022-10-02T22:20:16.234Z,85.141667
2022-10-02T22:25:16.174Z,84.854167
2022-10-02T22:30:16.292Z,84.737500
2022-10-02T22:35:16.393Z,84.783333
2022-10-02T22:40:16.237Z,85.033333
2022-10-02T22:45:16.461Z,85.129167
2022-10-02T22:50:16.259Z,85.112500
2022-10-02T22:55:16.596Z,85.433333
2022-10-02T23:00:16.455Z,85.625000
2022-10-02T23:05:16.554Z,85.537500
2022-10-02T23:10:16.301Z,85.216667
2022-10-02T23:15:16.362Z,85.512500
2022-10-02T23:20:16.222Z,85.650000
2022-10-02T23:25:16.223Z,85.500000
2022-10-02T23:30:16.636Z,85.383333
2022-10-02T23:35:16.190Z,85.345833
2022-10-02T23:40:16.214Z,85.104167
2022-10-02T23:45:16.247Z,84.672000
2022-10-02T23:50:16.236Z,84.466667
2022-10-02T23:55:16.195Z,84.358333
